createdAt,value
2022-08-19T00:02:06.688Z,43.61
2022-08-19T00:04:37.670Z,43.91
2022-08-19T00:07:06.710Z,43.71
2022-08-19T00:09:33.814Z,43.91
2022-08-19T00:12:01.509Z,44.06
2022-08-19T00:14:32.512Z,44.51
2022-08-19T00:17:00.576Z,44.72
2022-08-19T00:19:28.063Z,44.84
2022-08-19T00:21:56.296Z,45.16
2022-08-19T00:24:23.748Z,45.25
2022-08-19T00:26:51.536Z,45.39
2022-08-19T00:29:21.455Z,45.69
2022-08-19T00:31:50.723Z,45.84
2022-08-19T00:34:17.892Z,46.10
2022-08-19T00:36:44.884Z,46.05
2022-08-19T00:39:13.113Z,46.32
2022-08-19T00:41:41.018Z,46.36
2022-08-19T00:44:15.015Z,46.50
2022-08-19T00:46:45.621Z,46.97
2022-08-19T00:49:46.688Z,47.11
2022-08-19T00:52:17.835Z,47.04
2022-08-19T00:54:49.636Z,47.16
2022-08-19T00:57:27.775Z,47.12
2022-08-19T01:00:02.554Z,47.23
2022-08-19T01:02:34.037Z,47.32
2022-08-19T01:05:05.810Z,47.29
2022-08-19T01:07:37.898Z,47.34
2022-08-19T01:10:07.928Z,47.31
2022-08-19T01:12:35.613Z,47.43
2022-08-19T01:15:02.929Z,47.33
2022-08-19T01:17:30.981Z,47.47
2022-08-19T01:19:57.998Z,47.78
2022-08-19T01:22:31.431Z,47.85
2022-08-19T01:25:00.593Z,47.91
2022-08-19T01:27:29.475Z,48.33
2022-08-19T01:30:09.393Z,48.31
2022-08-19T01:32:36.518Z,48.49
2022-08-19T01:35:05.285Z,48.81
2022-08-19T01:37:48.186Z,49.22
2022-08-19T01:40:16.553Z,48.92
2022-08-19T01:42:44.110Z,49.03
2022-08-19T01:45:11.568Z,49.07
2022-08-19T01:47:39.483Z,49.26
2022-08-19T01:50:09.237Z,48.94
2022-08-19T01:52:38.060Z,49.20
2022-08-19T01:55:07.581Z,49.20
2022-08-19T01:57:35.121Z,49.12
2022-08-19T02:00:06.366Z,49.31
2022-08-19T02:02:39.327Z,49.24
2022-08-19T02:05:08.193Z,49.08
2022-08-19T02:07:38.777Z,49.04
2022-08-19T02:10:13.701Z,49.35
2022-08-19T02:12:44.753Z,49.20
2022-08-19T02:15:12.638Z,49.22
2022-08-19T02:17:40.373Z,49.13
2022-08-19T02:20:08.027Z,49.04
2022-08-19T02:22:36.398Z,48.84
2022-08-19T02:25:05.322Z,48.88
2022-08-19T02:27:32.352Z,49.12
2022-08-19T02:29:59.460Z,49.26
2022-08-19T02:32:26.502Z,49.46
2022-08-19T02:34:53.480Z,49.42
2022-08-19T02:37:38.906Z,49.91
2022-08-19T02:40:12.429Z,49.54
2022-08-19T02:42:40.595Z,49.74
2022-08-19T02:45:08.771Z,49.67
2022-08-19T02:47:35.798Z,49.82
2022-08-19T02:50:05.277Z,49.66
2022-08-19T02:52:33.939Z,49.61
2022-08-19T02:55:02.110Z,49.46
2022-08-19T02:57:32.572Z,49.49
2022-08-19T02:59:59.947Z,49.38
2022-08-19T03:02:27.133Z,49.53
2022-08-19T03:04:54.132Z,49.37
2022-08-19T03:07:21.191Z,49.54
2022-08-19T03:09:48.218Z,49.55
2022-08-19T03:12:15.241Z,49.44
2022-08-19T03:14:42.468Z,49.57
2022-08-19T03:17:09.512Z,49.68
2022-08-19T03:19:36.433Z,49.68
2022-08-19T03:22:05.877Z,49.73
2022-08-19T03:24:33.057Z,49.82
2022-08-19T03:27:00.008Z,49.55
2022-08-19T03:29:31.098Z,49.56
2022-08-19T03:32:05.092Z,49.76
2022-08-19T03:34:34.401Z,49.51
2022-08-19T03:37:09.453Z,49.80
2022-08-19T03:39:39.175Z,49.81
2022-08-19T03:42:31.900Z,49.54
2022-08-19T03:44:53.765Z,49.89
2022-08-19T03:47:20.843Z,49.56
2022-08-19T03:49:48.203Z,49.63
2022-08-19T03:52:15.320Z,49.76
2022-08-19T03:54:43.125Z,49.63
2022-08-19T03:57:10.220Z,49.67
2022-08-19T03:59:38.960Z,49.47
2022-08-19T04:02:12.686Z,49.52
2022-08-19T04:04:41.714Z,49.11
2022-08-19T04:07:10.532Z,49.08
2022-08-19T04:09:38.359Z,48.73
2022-08-19T04:12:06.663Z,48.80
2022-08-19T04:14:34.878Z,48.52
2022-08-19T04:17:06.024Z,48.32
2022-08-19T04:19:35.236Z,48.23
2022-08-19T04:22:02.542Z,48.38
2022-08-19T04:24:29.543Z,48.24
2022-08-19T04:26:57.106Z,48.10
2022-08-19T04:29:26.492Z,48.02
2022-08-19T04:31:56.672Z,48.10
2022-08-19T04:34:26.752Z,47.99
2022-08-19T04:36:55.807Z,47.77
2022-08-19T04:39:50.821Z,47.54
2022-08-19T04:42:37.753Z,47.36
2022-08-19T04:45:09.259Z,47.25
2022-08-19T04:47:48.189Z,46.52
2022-08-19T04:50:27.456Z,45.92
2022-08-19T04:52:54.775Z,44.98
2022-08-19T04:55:22.073Z,44.03
2022-08-19T04:57:50.083Z,43.65
2022-08-19T05:00:17.109Z,42.69
2022-08-19T05:02:44.094Z,42.33
2022-08-19T05:05:11.403Z,41.43
2022-08-19T05:07:38.547Z,40.38
2022-08-19T05:10:06.821Z,40.30
2022-08-19T05:12:34.115Z,39.94
2022-08-19T05:15:03.829Z,39.42
2022-08-19T05:17:34.949Z,38.51
2022-08-19T05:20:24.675Z,37.94
2022-08-19T05:22:51.659Z,38.52
2022-08-19T05:25:21.504Z,38.49
2022-08-19T05:27:49.005Z,38.81
2022-08-19T05:30:16.448Z,38.99
2022-08-19T05:32:44.317Z,39.56
2022-08-19T05:35:12.833Z,39.55
2022-08-19T05:37:43.840Z,39.31
2022-08-19T05:40:11.367Z,38.89
2022-08-19T05:42:38.824Z,38.93
2022-08-19T05:45:06.430Z,39.98
2022-08-19T05:47:33.395Z,39.96
2022-08-19T05:50:04.890Z,40.05
2022-08-19T05:52:32.468Z,40.81
2022-08-19T05:55:00.605Z,41.02
2022-08-19T05:57:29.919Z,40.85
2022-08-19T05:59:59.111Z,41.37
2022-08-19T06:02:27.678Z,41.59
2022-08-19T06:04:54.756Z,41.31
2022-08-19T06:07:21.898Z,41.76
2022-08-19T06:09:59.096Z,41.38
2022-08-19T06:12:36.085Z,41.33
2022-08-19T06:15:08.685Z,40.83
2022-08-19T06:17:36.362Z,40.66
2022-08-19T06:20:09.874Z,39.79
2022-08-19T06:22:45.620Z,39.88
2022-08-19T06:25:15.317Z,39.62
2022-08-19T06:30:29.922Z,39.40
2022-08-19T06:32:57.083Z,39.37
2022-08-19T06:35:24.176Z,39.62
2022-08-19T06:37:51.232Z,39.46
2022-08-19T06:40:18.447Z,39.67
2022-08-19T06:42:54.417Z,39.72
2022-08-19T06:45:34.512Z,39.48
2022-08-19T06:48:03.665Z,39.65
2022-08-19T06:50:30.679Z,39.88
2022-08-19T06:52:58.150Z,40.25
2022-08-19T06:55:33.395Z,40.50
2022-08-19T06:58:04.892Z,40.20
2022-08-19T07:00:32.521Z,40.57
2022-08-19T07:03:02.987Z,40.37
2022-08-19T07:05:31.820Z,40.85
2022-08-19T07:08:04.820Z,41.05
2022-08-19T07:10:33.866Z,40.80
2022-08-19T07:13:01.358Z,40.78
2022-08-19T07:15:28.600Z,40.73
2022-08-19T07:17:56.426Z,40.68
2022-08-19T07:20:28.579Z,39.96
2022-08-19T07:22:56.568Z,39.24
2022-08-19T07:25:32.483Z,38.66
2022-08-19T07:28:01.571Z,37.86
2022-08-19T07:30:29.143Z,37.23
2022-08-19T07:32:57.248Z,35.95
2022-08-19T07:35:25.057Z,34.28
2022-08-19T07:37:54.179Z,32.73
2022-08-19T07:40:21.597Z,31.01
2022-08-19T07:42:48.593Z,29.94
2022-08-19T07:45:17.110Z,28.48
2022-08-19T07:47:50.287Z,27.75
2022-08-19T07:50:20.907Z,26.90
2022-08-19T07:52:50.675Z,26.17
2022-08-19T07:55:41.202Z,25.37
2022-08-19T07:58:09.293Z,25.64
2022-08-19T08:00:36.980Z,25.95
2022-08-19T08:03:04.055Z,25.57
2022-08-19T08:05:49.600Z,25.60
2022-08-19T08:08:35.209Z,25.00
2022-08-19T08:11:02.261Z,24.72
2022-08-19T08:13:29.343Z,24.47
2022-08-19T08:15:57.612Z,23.52
2022-08-19T08:18:27.804Z,23.56
2022-08-19T08:20:56.245Z,24.19
2022-08-19T08:23:26.883Z,24.98
2022-08-19T08:25:57.566Z,25.13
2022-08-19T08:28:25.669Z,23.90
2022-08-19T08:30:53.418Z,23.25
2022-08-19T08:33:29.905Z,22.80
2022-08-19T08:36:12.068Z,22.78
2022-08-19T08:38:40.917Z,23.58
2022-08-19T08:41:31.710Z,24.35
2022-08-19T08:43:59.944Z,25.47
2022-08-19T08:46:41.157Z,25.98
2022-08-19T08:49:19.627Z,25.84
2022-08-19T08:51:59.859Z,26.65
2022-08-19T08:54:34.876Z,27.12
2022-08-19T08:57:08.718Z,27.65
2022-08-19T08:59:40.276Z,27.89
2022-08-19T09:02:07.452Z,28.44
2022-08-19T09:04:40.016Z,27.75
2022-08-19T09:07:39.965Z,27.59
2022-08-19T09:10:19.700Z,26.87
2022-08-19T09:13:14.560Z,26.43
2022-08-19T09:15:52.384Z,24.79
2022-08-19T09:18:19.883Z,23.85
2022-08-19T09:20:50.627Z,23.47
2022-08-19T09:23:18.145Z,23.38
2022-08-19T09:25:54.047Z,22.80
2022-08-19T09:28:22.674Z,22.88
2022-08-19T09:30:54.415Z,23.26
2022-08-19T09:33:21.429Z,22.61
2022-08-19T09:35:49.903Z,22.13
2022-08-19T09:38:21.675Z,22.16
2022-08-19T09:40:48.884Z,21.45
2022-08-19T09:43:33.104Z,20.55
2022-08-19T09:46:02.741Z,20.17
2022-08-19T09:48:29.748Z,20.33
2022-08-19T09:51:11.946Z,20.47
2022-08-19T09:53:39.975Z,20.17
2022-08-19T09:56:07.651Z,19.30
2022-08-19T09:58:37.065Z,19.01
2022-08-19T10:01:05.789Z,19.54
2022-08-19T10:03:34.316Z,18.72
2022-08-19T10:06:03.346Z,17.47
2022-08-19T10:08:35.206Z,16.99
2022-08-19T10:11:28.386Z,15.92
2022-08-19T10:13:50.705Z,15.70
2022-08-19T10:16:30.150Z,15.88
2022-08-19T10:18:59.100Z,15.10
2022-08-19T10:21:32.380Z,15.28
2022-08-19T10:24:05.319Z,15.60
2022-08-19T10:26:37.848Z,15.51
2022-08-19T10:29:09.420Z,15.74
2022-08-19T10:32:01.161Z,15.09
2022-08-19T10:34:27.789Z,14.61
2022-08-19T10:37:01.341Z,14.25
2022-08-19T10:39:33.665Z,14.34
2022-08-19T10:42:14.337Z,14.39
2022-08-19T10:44:42.560Z,14.35
2022-08-19T10:47:24.608Z,13.88
2022-08-19T10:50:13.558Z,13.05
2022-08-19T10:52:50.222Z,12.78
2022-08-19T10:55:39.815Z,13.43
2022-08-19T10:58:15.458Z,12.48
2022-08-19T11:00:46.722Z,13.29
2022-08-19T11:03:13.861Z,13.55
2022-08-19T11:05:41.733Z,13.85
2022-08-19T11:08:23.426Z,13.71
2022-08-19T11:10:58.579Z,13.41
2022-08-19T11:13:26.154Z,14.04
2022-08-19T11:16:09.828Z,13.82
2022-08-19T11:18:40.058Z,14.59
2022-08-19T11:21:28.902Z,15.08
2022-08-19T11:23:58.281Z,14.94
2022-08-19T11:26:25.760Z,15.13
2022-08-19T11:28:55.949Z,15.27
2022-08-19T11:31:28.833Z,15.60
2022-08-19T11:34:01.066Z,15.03
2022-08-19T11:36:29.096Z,14.46
2022-08-19T11:38:56.448Z,13.73
2022-08-19T11:41:24.764Z,13.82
2022-08-19T11:43:56.372Z,14.75
2022-08-19T11:46:26.237Z,14.97
2022-08-19T11:48:53.659Z,14.89
2022-08-19T11:51:23.838Z,14.87
2022-08-19T11:53:52.036Z,16.06
2022-08-19T11:56:20.215Z,16.57
2022-08-19T11:58:47.533Z,18.05
2022-08-19T12:01:17.504Z,18.20
2022-08-19T12:03:49.942Z,18.80
2022-08-19T12:06:26.662Z,20.11
2022-08-19T12:08:53.935Z,20.24
2022-08-19T12:11:21.352Z,20.60
2022-08-19T12:13:48.824Z,20.81
2022-08-19T12:16:28.060Z,20.67
2022-08-19T12:18:56.961Z,20.95
2022-08-19T12:21:28.679Z,21.33
2022-08-19T12:23:58.940Z,22.13
2022-08-19T12:26:27.908Z,22.46
2022-08-19T12:28:55.468Z,23.08
2022-08-19T12:31:22.961Z,23.32
2022-08-19T12:33:50.001Z,24.32
2022-08-19T12:36:18.881Z,24.67
2022-08-19T12:38:47.855Z,25.26
2022-08-19T12:41:18.886Z,25.58
2022-08-19T12:43:47.046Z,26.14
2022-08-19T12:46:15.245Z,25.86
2022-08-19T12:48:46.085Z,26.24
2022-08-19T12:51:17.451Z,26.72
2022-08-19T12:53:44.831Z,27.02
2022-08-19T12:56:15.404Z,27.40
2022-08-19T12:58:50.452Z,27.44
2022-08-19T13:01:22.645Z,28.33
2022-08-19T13:03:53.296Z,28.28
2022-08-19T13:06:20.475Z,28.82
2022-08-19T13:08:47.753Z,28.90
2022-08-19T13:11:18.905Z,29.59
2022-08-19T13:13:49.636Z,29.16
2022-08-19T13:16:16.874Z,29.44
2022-08-19T13:18:47.614Z,29.74
2022-08-19T13:21:15.575Z,29.47
2022-08-19T13:23:42.982Z,29.81
2022-08-19T13:26:11.289Z,29.83
2022-08-19T13:28:57.961Z,29.79
2022-08-19T13:31:45.624Z,30.27
2022-08-19T13:34:13.535Z,30.60
2022-08-19T13:36:40.610Z,30.72
2022-08-19T13:39:11.828Z,30.73
2022-08-19T13:41:44.298Z,31.03
2022-08-19T13:44:11.266Z,30.76
2022-08-19T13:46:38.206Z,30.54
2022-08-19T13:49:05.441Z,30.91
2022-08-19T13:51:32.407Z,30.93
2022-08-19T13:53:59.370Z,31.02
2022-08-19T13:56:26.701Z,31.29
2022-08-19T13:58:54.792Z,31.31
2022-08-19T14:01:27.637Z,31.16
2022-08-19T14:03:54.699Z,31.27
2022-08-19T14:06:22.457Z,31.60
2022-08-19T14:08:49.808Z,31.89
2022-08-19T14:11:18.037Z,31.74
2022-08-19T14:13:45.208Z,31.95
2022-08-19T14:16:14.831Z,32.00
2022-08-19T14:18:43.071Z,31.78
2022-08-19T14:21:18.212Z,32.36
2022-08-19T14:23:46.183Z,32.24
2022-08-19T14:26:17.910Z,32.37
2022-08-19T14:28:46.441Z,32.60
2022-08-19T14:31:17.769Z,32.74
2022-08-19T14:33:44.840Z,32.96
2022-08-19T14:36:12.133Z,32.76
2022-08-19T14:38:39.147Z,32.79
2022-08-19T14:41:13.758Z,32.84
2022-08-19T14:43:41.092Z,32.71
2022-08-19T14:46:09.145Z,32.89
2022-08-19T14:48:41.608Z,33.25
2022-08-19T14:51:09.118Z,33.36
2022-08-19T14:53:36.476Z,33.78
2022-08-19T14:56:12.240Z,33.88
2022-08-19T14:58:39.633Z,34.28
2022-08-19T15:01:06.617Z,33.79
2022-08-19T15:03:34.343Z,34.24
2022-08-19T15:06:03.329Z,33.98
2022-08-19T15:08:32.499Z,34.24
2022-08-19T15:11:00.581Z,33.90
2022-08-19T15:13:29.109Z,34.75
2022-08-19T15:15:56.741Z,34.58
2022-08-19T15:18:24.242Z,34.48
2022-08-19T15:20:52.062Z,34.55
2022-08-19T15:23:21.859Z,34.90
2022-08-19T15:25:49.429Z,34.57
2022-08-19T15:28:17.401Z,34.47
2022-08-19T15:30:44.951Z,34.61
2022-08-19T15:33:15.393Z,34.64
2022-08-19T15:35:43.341Z,35.14
2022-08-19T15:38:14.004Z,35.06
2022-08-19T15:40:42.377Z,35.42
2022-08-19T15:43:09.324Z,35.16
2022-08-19T15:45:36.319Z,35.14
2022-08-19T15:48:04.954Z,35.19
2022-08-19T15:50:35.972Z,35.52
2022-08-19T15:53:07.320Z,35.72
2022-08-19T15:55:37.693Z,35.59
2022-08-19T15:58:29.985Z,35.59
2022-08-19T16:01:27.012Z,36.25
2022-08-19T16:04:16.035Z,36.37
2022-08-19T16:06:52.637Z,36.33
2022-08-19T16:09:26.966Z,35.93
2022-08-19T16:12:02.425Z,36.33
2022-08-19T16:14:32.878Z,36.07
2022-08-19T16:17:00.392Z,36.12
2022-08-19T16:19:27.544Z,36.31
2022-08-19T16:21:56.526Z,36.77
2022-08-19T16:24:26.900Z,36.86
2022-08-19T16:26:54.688Z,37.28
2022-08-19T16:29:33.638Z,37.44
2022-08-19T16:32:04.301Z,37.50
2022-08-19T16:34:31.956Z,37.84
2022-08-19T16:37:00.945Z,37.73
2022-08-19T16:39:28.045Z,38.08
2022-08-19T16:41:55.052Z,38.15
2022-08-19T16:44:22.287Z,38.27
2022-08-19T16:46:58.341Z,38.21
2022-08-19T16:49:53.656Z,37.63
2022-08-19T16:52:16.248Z,37.40
2022-08-19T16:54:44.638Z,37.26
2022-08-19T16:57:13.051Z,37.27
2022-08-19T16:59:48.134Z,37.50
2022-08-19T17:02:22.701Z,37.55
2022-08-19T17:04:58.612Z,37.42
2022-08-19T17:07:32.283Z,37.60
2022-08-19T17:10:01.648Z,37.83
2022-08-19T17:12:32.427Z,38.21
2022-08-19T17:15:05.299Z,38.06
2022-08-19T17:17:32.443Z,37.84
2022-08-19T17:20:01.306Z,38.06
2022-08-19T17:22:28.932Z,37.87
2022-08-19T17:24:58.069Z,37.76
2022-08-19T17:27:27.309Z,37.85
2022-08-19T17:30:00.009Z,38.15
2022-08-19T17:32:27.424Z,37.98
2022-08-19T17:34:54.550Z,37.83
2022-08-19T17:37:22.454Z,38.12
2022-08-19T17:39:49.764Z,37.81
2022-08-19T17:42:16.817Z,37.52
2022-08-19T17:44:50.329Z,37.51
2022-08-19T17:47:17.855Z,37.24
2022-08-19T17:49:44.837Z,36.90
2022-08-19T17:52:11.996Z,37.08
2022-08-19T17:54:39.021Z,36.35
2022-08-19T17:57:06.127Z,36.72
2022-08-19T17:59:33.256Z,36.20
2022-08-19T18:02:00.440Z,36.56
2022-08-19T18:04:29.540Z,36.79
2022-08-19T18:06:56.983Z,36.84
2022-08-19T18:09:41.931Z,36.80
2022-08-19T18:12:14.174Z,36.47
2022-08-19T18:14:42.171Z,36.48
2022-08-19T18:17:14.456Z,36.14
2022-08-19T18:19:43.958Z,36.14
2022-08-19T18:22:36.983Z,35.89
2022-08-19T18:25:13.214Z,35.59
2022-08-19T18:27:41.377Z,35.86
2022-08-19T18:30:11.309Z,35.50
2022-08-19T18:32:40.049Z,36.06
2022-08-19T18:35:11.319Z,34.93
2022-08-19T18:37:43.389Z,35.21
2022-08-19T18:40:32.485Z,34.92
2022-08-19T18:43:11.483Z,34.97
2022-08-19T18:45:57.933Z,35.01
2022-08-19T18:48:43.669Z,35.73
2022-08-19T18:51:11.365Z,35.45
2022-08-19T18:53:41.160Z,35.65
2022-08-19T18:56:13.356Z,35.74
2022-08-19T18:58:42.141Z,35.62
2022-08-19T19:01:17.297Z,35.55
2022-08-19T19:03:47.848Z,35.40
2022-08-19T19:06:24.437Z,35.89
2022-08-19T19:08:54.217Z,35.98
2022-08-19T19:11:34.082Z,35.72
2022-08-19T19:14:03.530Z,35.96
2022-08-19T19:16:32.212Z,35.55
2022-08-19T19:19:00.003Z,35.25
2022-08-19T19:21:34.080Z,35.24
2022-08-19T19:24:02.209Z,35.39
2022-08-19T19:26:29.374Z,35.48
2022-08-19T19:28:57.577Z,34.84
2022-08-19T19:31:29.516Z,34.92
2022-08-19T19:33:56.993Z,34.80
2022-08-19T19:36:24.293Z,35.21
2022-08-19T19:38:51.515Z,34.59
2022-08-19T19:41:24.316Z,34.96
2022-08-19T19:44:09.910Z,34.55
2022-08-19T19:46:42.805Z,34.29
2022-08-19T19:49:10.486Z,34.17
2022-08-19T19:51:39.543Z,34.47
2022-08-19T19:54:15.472Z,34.22
2022-08-19T19:56:48.699Z,34.48
2022-08-19T19:59:15.892Z,33.70
2022-08-19T20:01:47.178Z,33.56
2022-08-19T20:04:15.548Z,33.82
2022-08-19T20:06:43.182Z,33.57
2022-08-19T20:09:17.546Z,33.53
2022-08-19T20:11:55.524Z,33.39
2022-08-19T20:14:33.441Z,33.97
2022-08-19T20:17:00.571Z,33.92
2022-08-19T20:19:37.185Z,33.75
2022-08-19T20:22:06.647Z,33.72
2022-08-19T20:24:36.279Z,33.50
2022-08-19T20:27:04.964Z,33.69
2022-08-19T20:29:38.082Z,34.03
2022-08-19T20:32:05.755Z,33.93
2022-08-19T20:34:33.891Z,33.65
2022-08-19T20:37:00.920Z,33.30
2022-08-19T20:39:28.152Z,33.55
2022-08-19T20:41:56.582Z,33.71
2022-08-19T20:44:25.590Z,33.47
2022-08-19T20:46:56.774Z,33.37
2022-08-19T20:49:27.273Z,33.73
2022-08-19T20:51:56.008Z,34.00
2022-08-19T20:54:24.086Z,34.02
2022-08-19T20:56:51.889Z,34.31
2022-08-19T20:59:20.202Z,34.80
2022-08-19T21:01:48.531Z,34.28
2022-08-19T21:04:15.618Z,34.25
2022-08-19T21:06:45.467Z,34.53
2022-08-19T21:09:14.324Z,34.30
2022-08-19T21:11:41.647Z,34.75
2022-08-19T21:14:09.209Z,34.72
2022-08-19T21:16:36.385Z,34.58
2022-08-19T21:19:03.651Z,34.53
2022-08-19T21:21:31.115Z,34.80
2022-08-19T21:23:58.115Z,34.99
2022-08-19T21:26:25.407Z,35.04
2022-08-19T21:28:52.444Z,35.07
2022-08-19T21:31:19.595Z,35.45
2022-08-19T21:33:46.944Z,35.39
2022-08-19T21:36:14.195Z,35.49
2022-08-19T21:38:41.546Z,35.50
2022-08-19T21:41:09.039Z,35.28
2022-08-19T21:43:38.254Z,35.50
2022-08-19T21:46:06.572Z,35.64
2022-08-19T21:48:33.632Z,35.77
2022-08-19T21:51:00.606Z,35.38
2022-08-19T21:53:31.697Z,35.33
2022-08-19T21:56:03.309Z,35.73
2022-08-19T21:58:30.831Z,35.90
2022-08-19T22:00:59.399Z,35.99
2022-08-19T22:03:27.546Z,35.93
2022-08-19T22:05:54.700Z,36.05
2022-08-19T22:08:21.694Z,36.04
2022-08-19T22:10:49.832Z,36.17
2022-08-19T22:13:18.496Z,36.58
2022-08-19T22:15:46.134Z,36.66
2022-08-19T22:18:13.868Z,36.80
2022-08-19T22:20:40.834Z,36.74
2022-08-19T22:23:07.991Z,36.95
2022-08-19T22:25:46.185Z,36.86
2022-08-19T22:28:15.234Z,37.13
2022-08-19T22:30:47.325Z,36.87
2022-08-19T22:33:21.521Z,37.11
2022-08-19T22:35:49.167Z,37.27
2022-08-19T22:38:16.670Z,36.80
2022-08-19T22:40:47.472Z,36.98
2022-08-19T22:43:28.687Z,37.21
2022-08-19T22:45:56.900Z,37.39
2022-08-19T22:48:26.280Z,37.68
2022-08-19T22:51:12.741Z,37.72
2022-08-19T22:53:41.835Z,37.72
2022-08-19T22:56:14.958Z,38.12
2022-08-19T22:58:42.667Z,38.26
2022-08-19T23:01:14.681Z,38.52
2022-08-19T23:03:56.424Z,38.91
2022-08-19T23:06:23.628Z,39.09
2022-08-19T23:09:00.135Z,39.16
2022-08-19T23:11:27.114Z,39.53
2022-08-19T23:13:54.344Z,39.53
2022-08-19T23:16:21.266Z,39.51
2022-08-19T23:18:48.801Z,39.99
2022-08-19T23:21:26.536Z,39.84
2022-08-19T23:23:54.169Z,40.02
2022-08-19T23:26:21.662Z,40.17
2022-08-19T23:29:07.182Z,40.07
2022-08-19T23:31:35.636Z,40.18
2022-08-19T23:34:03.366Z,40.58
2022-08-19T23:36:30.360Z,40.42
2022-08-19T23:39:00.956Z,40.72
2022-08-19T23:41:28.244Z,40.70
2022-08-19T23:43:55.231Z,40.89
2022-08-19T23:46:27.693Z,41.09
2022-08-19T23:49:00.972Z,41.11
2022-08-19T23:51:28.038Z,41.30
2022-08-19T23:53:55.088Z,41.85
2022-08-19T23:56:22.046Z,41.34
2022-08-19T23:58:49.330Z,41.69
